createdAt,value
2023-01-04T00:01:27.047Z,11.68
2023-01-04T00:03:54.360Z,9.75
2023-01-04T00:06:22.024Z,7.45
2023-01-04T00:08:49.511Z,7.82
2023-01-04T00:11:22.387Z,7.07
2023-01-04T00:16:20.617Z,7.63
2023-01-04T00:18:48.922Z,6.95
2023-01-04T00:21:21.777Z,8.48
2023-01-04T00:26:22.144Z,10.15
2023-01-04T00:28:54.186Z,11.27
2023-01-04T00:31:23.505Z,10.80
2023-01-04T00:33:53.564Z,10.05
2023-01-04T00:36:20.909Z,8.98
2023-01-04T00:38:48.382Z,9.60
2023-01-04T00:41:42.047Z,8.60
2023-01-04T00:44:04.575Z,9.35
2023-01-04T00:46:32.829Z,9.48
2023-01-04T00:49:01.110Z,11.50
2023-01-04T00:51:30.088Z,9.63
2023-01-04T00:54:00.136Z,9.68
2023-01-04T00:56:30.078Z,9.20
2023-01-04T00:58:58.659Z,9.73
2023-01-04T01:01:30.956Z,9.60
2023-01-04T01:04:01.938Z,10.30
2023-01-04T01:06:31.405Z,10.10
2023-01-04T01:08:58.972Z,10.52
2023-01-04T01:11:26.717Z,10.60
2023-01-04T01:13:54.158Z,10.88
2023-01-04T01:16:51.740Z,11.82
2023-01-04T01:19:11.168Z,11.43
2023-01-04T01:21:38.604Z,10.20
2023-01-04T01:24:06.571Z,10.93
2023-01-04T01:26:33.933Z,9.82
2023-01-04T01:29:01.056Z,9.80
2023-01-04T01:31:29.855Z,9.77
2023-01-04T01:33:57.604Z,9.70
2023-01-04T01:36:26.749Z,9.65
2023-01-04T01:38:54.659Z,9.93
2023-01-04T01:41:27.381Z,8.60
2023-01-04T01:44:07.190Z,8.60
2023-01-04T01:46:37.422Z,9.13
2023-01-04T01:49:24.168Z,9.82
2023-01-04T01:51:53.427Z,7.55
2023-01-04T01:54:27.319Z,8.32
2023-01-04T01:56:57.332Z,8.38
2023-01-04T01:59:25.089Z,7.47
2023-01-04T02:01:52.323Z,8.73
2023-01-04T02:04:19.531Z,8.77
2023-01-04T02:06:53.108Z,7.47
2023-01-04T02:09:21.508Z,8.68
2023-01-04T02:11:48.599Z,9.90
2023-01-04T02:14:30.305Z,8.40
2023-01-04T02:17:09.720Z,9.10
2023-01-04T02:20:14.525Z,8.55
2023-01-04T02:23:29.698Z,7.43
2023-01-04T02:26:17.846Z,10.35
2023-01-04T02:29:29.278Z,9.23
2023-01-04T02:32:01.944Z,9.32
2023-01-04T02:34:32.036Z,10.05
2023-01-04T02:37:26.772Z,10.73
2023-01-04T02:40:16.969Z,8.60
2023-01-04T02:43:16.315Z,9.20
2023-01-04T02:45:53.373Z,9.10
2023-01-04T02:48:38.822Z,9.55
2023-01-04T02:51:06.092Z,8.88
2023-01-04T02:53:40.093Z,8.95
2023-01-04T02:56:37.860Z,9.20
2023-01-04T02:59:20.155Z,9.23
2023-01-04T03:02:43.254Z,9.37
2023-01-04T03:06:01.147Z,9.32
2023-01-04T03:08:34.347Z,9.85
2023-01-04T03:11:03.188Z,10.25
2023-01-04T03:13:37.699Z,11.23
2023-01-04T03:16:13.930Z,12.00
2023-01-04T03:18:46.530Z,11.02
2023-01-04T03:21:16.057Z,10.90
2023-01-04T03:24:03.750Z,11.02
2023-01-04T03:26:54.108Z,10.65
2023-01-04T03:29:59.215Z,10.25
2023-01-04T03:33:19.767Z,11.13
2023-01-04T03:36:03.098Z,10.07
2023-01-04T03:38:54.940Z,11.27
2023-01-04T03:42:07.824Z,11.85
2023-01-04T03:45:09.504Z,9.93
2023-01-04T03:48:09.996Z,10.40
2023-01-04T03:50:42.775Z,10.20
2023-01-04T03:53:11.939Z,10.30
2023-01-04T03:55:40.969Z,11.07
2023-01-04T03:58:08.147Z,10.95
2023-01-04T04:00:35.681Z,10.43
2023-01-04T04:03:09.609Z,10.95
2023-01-04T04:05:58.663Z,10.85
2023-01-04T04:08:29.183Z,11.18
2023-01-04T04:11:23.806Z,11.50
2023-01-04T04:13:51.372Z,12.45
2023-01-04T04:16:19.320Z,12.85
2023-01-04T04:18:48.253Z,11.30
2023-01-04T04:21:15.953Z,11.75
2023-01-04T04:23:44.139Z,11.63
2023-01-04T04:26:14.108Z,11.50
2023-01-04T04:28:42.294Z,11.93
2023-01-04T04:31:10.335Z,12.43
2023-01-04T04:33:38.285Z,13.30
2023-01-04T04:36:06.513Z,16.13
2023-01-04T04:38:34.193Z,18.33
2023-01-04T04:41:26.512Z,17.70
2023-01-04T04:43:54.875Z,15.73
2023-01-04T04:46:23.034Z,16.58
2023-01-04T04:48:50.973Z,14.90
2023-01-04T04:51:18.662Z,15.02
2023-01-04T04:53:46.199Z,16.45
2023-01-04T04:56:13.675Z,15.00
2023-01-04T04:58:43.997Z,14.85
2023-01-04T05:01:12.297Z,15.68
2023-01-04T05:03:44.532Z,14.73
2023-01-04T05:06:12.314Z,14.40
2023-01-04T05:08:40.123Z,14.60
2023-01-04T05:11:09.405Z,13.82
2023-01-04T05:13:41.005Z,12.68
2023-01-04T05:16:09.849Z,14.95
2023-01-04T05:18:37.712Z,13.27
2023-01-04T05:21:05.586Z,15.05
2023-01-04T05:23:33.254Z,15.15
2023-01-04T05:26:01.986Z,15.25
2023-01-04T05:28:29.921Z,13.85
2023-01-04T05:30:57.529Z,13.85
2023-01-04T05:33:30.488Z,15.88
2023-01-04T05:36:00.238Z,14.80
2023-01-04T05:38:29.142Z,14.70
2023-01-04T05:40:59.890Z,14.55
2023-01-04T05:43:27.544Z,15.07
2023-01-04T05:45:57.041Z,15.82
2023-01-04T05:48:28.035Z,15.15
2023-01-04T05:50:55.718Z,14.32
2023-01-04T05:53:23.327Z,15.90
2023-01-04T05:55:50.868Z,16.30
2023-01-04T05:58:18.885Z,14.18
2023-01-04T06:00:46.338Z,14.90
2023-01-04T06:03:14.091Z,14.32
2023-01-04T06:05:41.892Z,14.65
2023-01-04T06:08:09.483Z,17.88
2023-01-04T06:10:37.176Z,16.40
2023-01-04T06:13:05.941Z,19.25
2023-01-04T06:15:39.415Z,19.08
2023-01-04T06:18:13.489Z,18.38
2023-01-04T06:20:42.793Z,19.42
2023-01-04T06:23:10.327Z,18.58
2023-01-04T06:25:38.419Z,17.63
2023-01-04T06:28:06.070Z,19.73
2023-01-04T06:30:33.717Z,20.00
2023-01-04T06:33:01.269Z,19.25
2023-01-04T06:35:28.819Z,19.83
2023-01-04T06:38:01.462Z,21.35
2023-01-04T06:40:29.510Z,21.27
2023-01-04T06:42:57.258Z,24.05
2023-01-04T06:45:24.799Z,23.42
2023-01-04T06:47:52.585Z,24.60
2023-01-04T06:50:20.246Z,25.95
2023-01-04T06:52:47.757Z,28.25
2023-01-04T06:55:15.421Z,31.02
2023-01-04T06:57:43.152Z,29.77
2023-01-04T07:00:11.642Z,29.75
2023-01-04T07:02:39.359Z,31.40
2023-01-04T07:05:26.622Z,35.47
2023-01-04T07:07:54.196Z,37.95
2023-01-04T07:10:21.847Z,36.63
2023-01-04T07:12:49.418Z,36.08
2023-01-04T07:15:38.980Z,33.10
2023-01-04T07:18:11.262Z,36.08
2023-01-04T07:20:39.541Z,41.88
2023-01-04T07:23:08.514Z,56.33
2023-01-04T07:25:38.753Z,55.95
2023-01-04T07:28:06.349Z,46.78
2023-01-04T07:30:33.830Z,40.38
2023-01-04T07:33:03.005Z,40.67
2023-01-04T07:35:33.760Z,48.60
2023-01-04T07:38:01.139Z,46.72
2023-01-04T07:40:28.934Z,48.15
2023-01-04T07:42:59.972Z,45.88
2023-01-04T07:45:27.937Z,42.63
2023-01-04T07:47:59.317Z,34.40
2023-01-04T07:50:26.925Z,32.70
2023-01-04T07:52:54.476Z,40.58
2023-01-04T07:55:22.223Z,33.90
2023-01-04T07:57:49.825Z,26.92
2023-01-04T08:00:17.670Z,26.02
2023-01-04T08:03:16.123Z,24.83
2023-01-04T08:42:31.174Z,33.28
2023-01-04T08:45:05.009Z,39.55
2023-01-04T08:47:33.657Z,41.42
2023-01-04T08:50:08.025Z,37.72
2023-01-04T08:52:37.871Z,35.15
2023-01-04T08:55:11.922Z,34.42
2023-01-04T08:57:40.127Z,31.13
2023-01-04T09:00:08.080Z,33.38
2023-01-04T09:02:35.525Z,34.70
2023-01-04T09:05:04.316Z,33.25
2023-01-04T09:07:32.807Z,34.35
2023-01-04T09:10:01.086Z,33.60
2023-01-04T09:12:28.752Z,33.97
2023-01-04T09:14:55.994Z,32.13
2023-01-04T09:17:24.534Z,32.03
2023-01-04T09:19:51.980Z,31.15
2023-01-04T09:22:19.377Z,27.67
2023-01-04T09:24:46.803Z,23.55
2023-01-04T09:27:14.156Z,21.48
2023-01-04T09:29:42.342Z,20.40
2023-01-04T09:32:16.807Z,18.88
2023-01-04T09:34:46.273Z,15.73
2023-01-04T09:37:13.665Z,16.67
2023-01-04T09:39:41.202Z,15.23
2023-01-04T09:42:31.668Z,15.68
2023-01-04T09:45:29.635Z,13.45
2023-01-04T09:48:11.498Z,11.63
2023-01-04T09:51:05.001Z,12.63
2023-01-04T09:53:44.120Z,18.48
2023-01-04T09:56:34.069Z,17.27
2023-01-04T09:59:07.168Z,14.50
2023-01-04T10:01:51.601Z,14.57
2023-01-04T10:04:47.335Z,14.52
2023-01-04T10:07:32.697Z,14.90
2023-01-04T10:10:00.745Z,14.75
2023-01-04T10:13:01.987Z,14.75
2023-01-04T10:15:43.973Z,13.25
2023-01-04T10:21:34.023Z,13.68
2023-01-04T10:24:39.038Z,14.18
2023-01-04T10:27:27.750Z,13.23
2023-01-04T10:30:18.370Z,11.32
2023-01-04T10:32:50.131Z,10.13
2023-01-04T10:35:25.314Z,10.25
2023-01-04T10:37:57.859Z,9.52
2023-01-04T10:40:29.787Z,10.40
2023-01-04T10:43:02.223Z,9.77
2023-01-04T10:46:12.937Z,8.38
2023-01-04T10:49:04.931Z,10.18
2023-01-04T10:51:48.670Z,11.20
2023-01-04T10:54:37.727Z,14.95
2023-01-04T10:57:11.463Z,15.85
2023-01-04T10:59:43.765Z,16.08
2023-01-04T11:02:38.321Z,15.00
2023-01-04T11:05:23.821Z,15.60
2023-01-04T11:07:51.081Z,15.70
2023-01-04T11:10:31.683Z,15.23
2023-01-04T11:12:59.032Z,17.38
2023-01-04T11:15:30.983Z,17.60
2023-01-04T11:18:04.679Z,16.77
2023-01-04T11:20:36.140Z,16.42
2023-01-04T11:23:17.682Z,15.60
2023-01-04T11:26:03.327Z,16.77
2023-01-04T11:28:36.100Z,15.77
2023-01-04T11:34:04.410Z,14.88
2023-01-04T11:36:31.394Z,15.80
2023-01-04T11:39:00.561Z,15.85
2023-01-04T11:41:28.841Z,15.90
2023-01-04T11:44:04.939Z,15.73
2023-01-04T11:46:34.603Z,14.45
2023-01-04T11:49:01.851Z,14.80
2023-01-04T11:51:29.134Z,15.27
2023-01-04T11:54:17.802Z,14.50
2023-01-04T11:57:11.976Z,14.65
2023-01-04T11:59:39.683Z,15.50
2023-01-04T12:02:50.617Z,15.00
2023-01-04T12:05:33.908Z,13.27
2023-01-04T12:10:29.165Z,11.50
2023-01-04T12:13:01.933Z,12.25
2023-01-04T12:15:44.414Z,11.75
2023-01-04T12:18:36.753Z,11.23
2023-01-04T12:21:04.603Z,11.20
2023-01-04T12:23:34.103Z,10.10
2023-01-04T12:26:02.491Z,10.35
2023-01-04T12:28:43.077Z,11.75
2023-01-04T12:31:20.130Z,9.80
2023-01-04T12:34:18.629Z,10.25
2023-01-04T12:36:48.899Z,10.73
2023-01-04T12:39:16.290Z,10.00
2023-01-04T12:42:00.506Z,10.30
2023-01-04T12:44:37.195Z,9.70
2023-01-04T12:47:46.056Z,8.63
2023-01-04T12:50:19.768Z,8.25
2023-01-04T12:55:44.709Z,9.85
